createdAt,value
2018-07-28T00:01:52.280Z,37.20
2018-07-28T00:04:22.712Z,37.20
2018-07-28T00:06:53.227Z,37.30
2018-07-28T00:09:24.745Z,37.50
2018-07-28T00:11:55.317Z,37.70
2018-07-28T00:14:25.856Z,37.70
2018-07-28T00:16:56.386Z,37.90
2018-07-28T00:19:27.258Z,38.00
2018-07-28T00:21:57.839Z,38.10
2018-07-28T00:24:28.297Z,38.30
2018-07-28T00:26:58.862Z,38.30
2018-07-28T00:29:29.232Z,38.40
2018-07-28T00:32:00.379Z,38.50
2018-07-28T00:34:30.797Z,38.60
2018-07-28T00:37:01.235Z,38.70
2018-07-28T00:39:31.575Z,38.80
2018-07-28T00:42:02.054Z,38.80
2018-07-28T00:44:32.351Z,39.00
2018-07-28T00:47:02.818Z,39.10
2018-07-28T00:49:33.313Z,39.10
2018-07-28T00:52:03.703Z,39.30
2018-07-28T00:54:34.157Z,39.40
2018-07-28T00:57:04.552Z,39.50
2018-07-28T00:59:34.901Z,39.60
2018-07-28T01:02:05.482Z,39.70
2018-07-28T01:04:35.790Z,39.70
2018-07-28T01:07:06.281Z,39.80
2018-07-28T01:12:06.861Z,39.90
2018-07-28T01:14:37.267Z,40.00
2018-07-28T01:17:07.692Z,40.20
2018-07-28T01:19:38.208Z,40.10
2018-07-28T01:22:08.762Z,40.30
2018-07-28T01:24:39.248Z,40.50
2018-07-28T01:27:09.761Z,40.50
2018-07-28T01:29:40.101Z,40.70
2018-07-28T01:32:10.512Z,40.60
2018-07-28T01:34:41.012Z,40.80
2018-07-28T01:37:11.399Z,40.90
2018-07-28T01:39:41.872Z,40.80
2018-07-28T01:42:12.408Z,41.60
2018-07-28T01:44:42.877Z,41.10
2018-07-28T01:47:13.417Z,41.20
2018-07-28T01:49:43.955Z,41.30
2018-07-28T01:52:14.357Z,41.50
2018-07-28T01:54:44.858Z,41.40
2018-07-28T01:57:15.592Z,41.50
2018-07-28T01:59:46.015Z,41.70
2018-07-28T02:02:16.429Z,41.80
2018-07-28T02:04:46.849Z,41.80
2018-07-28T02:07:17.287Z,42.00
2018-07-28T02:09:47.697Z,42.00
2018-07-28T02:12:18.173Z,42.30
2018-07-28T02:14:48.573Z,42.50
2018-07-28T02:17:18.959Z,42.50
2018-07-28T02:19:49.412Z,42.60
2018-07-28T02:22:19.954Z,42.80
2018-07-28T02:24:50.448Z,42.90
2018-07-28T02:27:20.993Z,43.00
2018-07-28T02:29:51.364Z,43.00
2018-07-28T02:32:21.726Z,43.00
2018-07-28T02:37:22.039Z,43.30
2018-07-28T02:39:52.557Z,43.40
2018-07-28T02:42:23.017Z,43.60
2018-07-28T02:44:53.477Z,43.60
2018-07-28T02:47:23.841Z,43.50
2018-07-28T02:49:54.317Z,43.80
2018-07-28T02:52:24.749Z,43.90
2018-07-28T02:54:55.188Z,44.00
2018-07-28T02:57:25.501Z,44.20
2018-07-28T02:59:55.964Z,44.30
2018-07-28T03:02:26.558Z,44.40
2018-07-28T03:04:57.059Z,44.50
2018-07-28T03:07:27.459Z,44.60
2018-07-28T03:09:58.053Z,44.60
2018-07-28T03:12:28.506Z,44.70
2018-07-28T03:14:58.859Z,44.70
2018-07-28T03:17:29.413Z,44.60
2018-07-28T03:20:00.071Z,44.80
2018-07-28T03:22:30.478Z,44.90
2018-07-28T03:25:00.853Z,44.90
2018-07-28T03:27:31.361Z,44.90
2018-07-28T03:30:01.873Z,45.00
2018-07-28T03:32:32.369Z,45.10
2018-07-28T03:35:02.727Z,45.30
2018-07-28T03:37:33.033Z,45.30
2018-07-28T03:40:03.597Z,45.40
2018-07-28T03:42:34.743Z,45.40
2018-07-28T03:45:05.809Z,45.40
2018-07-28T03:47:36.331Z,46.10
2018-07-28T03:50:07.193Z,45.70
2018-07-28T03:52:37.695Z,45.60
2018-07-28T03:55:09.789Z,45.80
2018-07-28T03:57:40.228Z,46.00
2018-07-28T04:00:12.709Z,45.90
2018-07-28T04:02:43.061Z,46.20
2018-07-28T04:05:13.595Z,46.40
2018-07-28T04:07:44.003Z,46.40
2018-07-28T04:10:14.569Z,46.50
2018-07-28T04:12:44.920Z,46.50
2018-07-28T04:15:15.275Z,46.60
2018-07-28T04:17:54.120Z,46.60
2018-07-28T04:23:02.464Z,46.80
2018-07-28T04:25:32.948Z,46.90
2018-07-28T04:28:03.395Z,47.00
2018-07-28T04:30:33.767Z,46.90
2018-07-28T04:33:04.201Z,47.10
2018-07-28T04:35:34.660Z,47.20
2018-07-28T04:38:05.178Z,47.20
2018-07-28T04:40:35.652Z,47.30
2018-07-28T04:43:06.135Z,47.50
2018-07-28T04:45:36.575Z,47.30
2018-07-28T04:48:06.971Z,47.60
2018-07-28T04:50:37.413Z,47.60
2018-07-28T04:53:07.832Z,47.60
2018-07-28T04:55:38.435Z,47.80
2018-07-28T04:58:09.019Z,48.00
2018-07-28T05:00:39.516Z,47.90
2018-07-28T05:03:09.925Z,48.00
2018-07-28T05:05:40.492Z,48.10
2018-07-28T05:08:10.895Z,48.20
2018-07-28T05:10:41.669Z,48.40
2018-07-28T05:13:12.178Z,48.30
2018-07-28T05:15:42.623Z,48.40
2018-07-28T05:18:13.125Z,49.20
2018-07-28T05:20:43.653Z,48.80
2018-07-28T05:23:14.175Z,48.90
2018-07-28T05:25:44.641Z,48.90
2018-07-28T05:28:14.996Z,49.10
2018-07-28T05:30:45.427Z,49.40
2018-07-28T05:33:15.980Z,49.10
2018-07-28T05:35:46.465Z,49.10
2018-07-28T05:38:16.963Z,49.00
2018-07-28T05:40:47.497Z,49.00
2018-07-28T05:43:18.005Z,49.10
2018-07-28T05:45:48.509Z,49.20
2018-07-28T05:48:18.999Z,49.20
2018-07-28T05:50:49.454Z,49.10
2018-07-28T05:53:19.909Z,49.20
2018-07-28T05:55:50.362Z,49.20
2018-07-28T05:58:20.990Z,49.20
2018-07-28T06:00:51.573Z,49.20
2018-07-28T06:03:22.013Z,49.00
2018-07-28T06:05:52.498Z,48.90
2018-07-28T06:08:23.062Z,48.90
2018-07-28T06:10:53.625Z,48.70
2018-07-28T06:13:24.097Z,48.50
2018-07-28T06:15:54.662Z,48.40
2018-07-28T06:18:25.084Z,48.20
2018-07-28T06:20:56.045Z,48.00
2018-07-28T06:23:27.463Z,47.80
2018-07-28T06:25:57.959Z,47.60
2018-07-28T06:28:28.489Z,47.30
2018-07-28T06:30:58.928Z,47.20
2018-07-28T06:33:29.478Z,47.10
2018-07-28T06:35:59.916Z,46.80
2018-07-28T06:38:30.353Z,47.20
2018-07-28T06:41:00.851Z,46.40
2018-07-28T06:43:31.233Z,46.20
2018-07-28T06:46:01.633Z,46.00
2018-07-28T06:48:32.238Z,45.90
2018-07-28T06:51:02.679Z,45.70
2018-07-28T06:53:33.030Z,45.50
2018-07-28T06:56:03.569Z,45.30
2018-07-28T06:58:34.024Z,45.10
2018-07-28T07:01:04.575Z,45.00
2018-07-28T07:03:35.202Z,45.00
2018-07-28T07:06:06.439Z,44.90
2018-07-28T07:08:36.789Z,44.90
2018-07-28T07:11:07.365Z,45.00
2018-07-28T07:13:39.889Z,45.00
2018-07-28T07:16:10.893Z,44.90
2018-07-28T07:18:41.246Z,45.00
2018-07-28T07:21:11.775Z,45.20
2018-07-28T07:23:42.385Z,45.40
2018-07-28T07:26:13.339Z,45.50
2018-07-28T07:28:43.782Z,45.80
2018-07-28T07:31:15.213Z,46.10
2018-07-28T07:33:45.596Z,46.20
2018-07-28T07:36:16.093Z,46.50
2018-07-28T07:38:46.463Z,46.60
2018-07-28T07:41:16.919Z,46.90
2018-07-28T07:43:47.222Z,46.80
2018-07-28T07:46:17.621Z,47.10
2018-07-28T07:48:48.065Z,47.20
2018-07-28T07:51:19.185Z,47.50
2018-07-28T07:53:50.464Z,47.50
2018-07-28T07:56:21.815Z,47.50
2018-07-28T07:58:52.374Z,47.60
2018-07-28T08:01:26.121Z,47.60
2018-07-28T08:03:57.793Z,47.70
2018-07-28T08:06:29.694Z,47.70
2018-07-28T08:09:00.137Z,47.70
2018-07-28T08:11:30.329Z,47.70
2018-07-28T08:14:00.553Z,47.80
2018-07-28T08:16:30.858Z,47.80
2018-07-28T08:19:01.189Z,47.80
2018-07-28T08:21:31.430Z,47.80
2018-07-28T08:24:01.720Z,47.90
2018-07-28T08:26:31.918Z,47.90
2018-07-28T08:29:02.173Z,48.20
2018-07-28T08:31:32.321Z,48.80
2018-07-28T08:34:02.578Z,49.40
2018-07-28T08:36:32.717Z,50.00
2018-07-28T08:39:02.984Z,50.20
2018-07-28T08:41:33.209Z,50.60
2018-07-28T08:44:03.521Z,51.10
2018-07-28T08:46:33.786Z,51.80
2018-07-28T08:49:04.063Z,51.30
2018-07-28T08:51:34.152Z,51.90
2018-07-28T08:54:06.833Z,52.30
2018-07-28T08:56:37.367Z,52.40
2018-07-28T08:59:07.729Z,52.40
2018-07-28T09:01:37.875Z,52.50
2018-07-28T09:04:08.520Z,52.90
2018-07-28T09:06:39.341Z,53.10
2018-07-28T09:09:12.117Z,53.20
2018-07-28T09:11:42.446Z,53.20
2018-07-28T09:14:12.873Z,52.80
2018-07-28T09:16:44.098Z,53.40
2018-07-28T09:19:16.880Z,53.20
2018-07-28T09:21:47.252Z,53.10
2018-07-28T09:24:17.596Z,52.80
2018-07-28T09:26:47.998Z,52.70
2018-07-28T09:29:18.456Z,52.70
2018-07-28T09:31:48.855Z,52.80
2018-07-28T09:34:19.237Z,52.80
2018-07-28T09:36:49.643Z,53.10
2018-07-28T09:39:20.027Z,53.80
2018-07-28T09:41:50.393Z,54.60
2018-07-28T09:44:20.797Z,55.80
2018-07-28T09:49:20.963Z,56.60
2018-07-28T09:51:51.203Z,56.80
2018-07-28T09:54:21.411Z,57.20
2018-07-28T09:56:51.765Z,57.50
2018-07-28T09:59:22.031Z,57.30
2018-07-28T10:01:52.230Z,57.40
2018-07-28T10:04:22.435Z,57.60
2018-07-28T10:06:52.677Z,57.80
2018-07-28T10:09:22.869Z,57.70
2018-07-28T10:11:53.130Z,58.00
2018-07-28T10:14:23.408Z,58.20
2018-07-28T10:16:53.549Z,59.10
2018-07-28T10:19:23.728Z,59.80
2018-07-28T10:21:53.904Z,59.80
2018-07-28T10:24:23.978Z,61.20
2018-07-28T10:26:54.131Z,61.30
2018-07-28T10:29:24.425Z,61.70
2018-07-28T10:31:54.570Z,61.90
2018-07-28T10:34:24.673Z,62.00
2018-07-28T10:36:54.881Z,61.90
